Kevil, Kentucky
Current Conditions -  °F | °C
As of 7:10 AM on Thursday 27 Nov 2014 (Local Time) from KPAH Reporting Station
Overcast Overcast  
Wind Chill: 27°   Ceiling: 1500
Heat Index: 34°   Visibility: 9mi
Dew Point: 28°   Wind: 8mph
Humidity: 79%   Direction: 320°NW
Pressure: 30.39"   Gusts: 18mph
Location:  37.09°N, 88.89°W
Report Text: KPAH 271310Z 32007G16KT 9SM OVC015 01/M02 A3039 RMK AO2 T00111022
Loading
Personal Weather Stations






























Interactive Weather Map New forecast layout! Learn more

10-Day Weather Forecast

Advertisements
Track Severe Weather on mobile